SANT/TUC METAR and TAF weather

Enter ICAO airport designator
Station Type Date Time Source
SANT METAR 2019/09/20 09:00 UTC NOAA

SANT 200900Z 00000KT 8000 NSC 11/M02 Q1022


Station Type Date Time Source
SANT Decoded METAR 2019/09/20 09:00 UTC NOAA

Tucuman Aerodrome, Argentina (SANT) 26-51S 065-06W 450M
Sep 20, 2019 - 05:00 AM EDT / 2019.09.20 0900 UTC
Wind: Calm:0
Visibility: 4 mile(s):0
Temperature: 51 F (11 C)
Dew Point: 28 F (-2 C)
Relative Humidity: 40%
Pressure (altimeter): 30.18 in. Hg (1022 hPa)
ob: SANT 200900Z 00000KT 8000 NSC 11/M02 Q1022
cycle: 9

Station Type Date Time Source
SANT TAF 2019/09/20 06:16 UTC NOAA

TAF SANT 200500Z 2006/2106 14020KT 5000 BLDU SCT040 TX20/2018Z TN07/2010Z
BECMG 2012/2015 23005KT 5000 FU NSC

Example: see airport list